createdAt,value
2022-08-27T00:00:51.523Z,10.18
2022-08-27T00:03:55.581Z,10.52
2022-08-27T00:06:56.888Z,10.02
2022-08-27T00:09:59.438Z,11.27
2022-08-27T00:13:02.007Z,11.77
2022-08-27T00:16:07.136Z,12.65
2022-08-27T00:19:07.967Z,12.77
2022-08-27T00:22:10.164Z,11.20
2022-08-27T00:25:13.275Z,11.25
2022-08-27T00:28:15.412Z,11.88
2022-08-27T00:31:17.373Z,12.55
2022-08-27T00:34:19.482Z,12.98
2022-08-27T00:37:20.705Z,12.40
2022-08-27T00:40:23.465Z,14.15
2022-08-27T00:43:42.574Z,15.40
2022-08-27T00:46:54.233Z,16.02
2022-08-27T00:50:11.250Z,15.00
2022-08-27T00:53:17.964Z,14.45
2022-08-27T00:56:24.332Z,16.48
2022-08-27T00:59:32.988Z,16.02
2022-08-27T01:02:34.336Z,16.05
2022-08-27T01:05:38.205Z,15.90
2022-08-27T01:08:45.798Z,15.38
2022-08-27T01:11:48.376Z,14.95
2022-08-27T01:14:50.090Z,16.05
2022-08-27T01:17:51.916Z,15.40
2022-08-27T01:21:24.860Z,15.27
2022-08-27T01:24:48.669Z,16.10
2022-08-27T01:27:51.312Z,17.58
2022-08-27T01:30:52.736Z,18.52
2022-08-27T01:34:02.839Z,18.70
2022-08-27T01:37:06.713Z,18.60
2022-08-27T01:40:09.062Z,18.60
2022-08-27T01:43:10.596Z,17.33
2022-08-27T01:46:12.270Z,17.13
2022-08-27T01:49:13.283Z,17.20
2022-08-27T01:52:19.253Z,17.27
2022-08-27T01:55:25.205Z,18.50
2022-08-27T01:58:30.546Z,17.00
2022-08-27T02:01:31.617Z,17.65
2022-08-27T02:04:33.349Z,17.52
2022-08-27T02:07:34.472Z,21.35
2022-08-27T02:10:39.333Z,20.63
2022-08-27T02:13:40.443Z,20.02
2022-08-27T02:16:52.177Z,19.73
2022-08-27T02:19:53.704Z,18.70
2022-08-27T02:22:54.777Z,19.55
2022-08-27T02:25:55.966Z,20.02
2022-08-27T02:28:58.094Z,20.17
2022-08-27T02:32:00.091Z,21.00
2022-08-27T02:35:03.408Z,25.13
2022-08-27T02:38:04.769Z,26.02
2022-08-27T02:41:06.700Z,27.10
2022-08-27T02:44:10.296Z,30.02
2022-08-27T02:47:12.456Z,26.85
2022-08-27T02:50:14.681Z,25.50
2022-08-27T02:53:15.712Z,29.17
2022-08-27T02:56:17.335Z,29.77
2022-08-27T02:59:23.903Z,28.67
2022-08-27T03:02:25.780Z,29.27
2022-08-27T03:05:29.039Z,27.85
2022-08-27T03:08:30.358Z,27.25
2022-08-27T03:14:38.986Z,23.00
2022-08-27T03:17:59.035Z,25.08
2022-08-27T03:21:02.174Z,26.98
2022-08-27T03:24:11.735Z,25.88
2022-08-27T03:27:15.938Z,27.23
2022-08-27T03:30:21.846Z,27.88
2022-08-27T03:33:23.232Z,27.60
2022-08-27T03:36:27.039Z,25.55
2022-08-27T03:39:28.264Z,24.52
2022-08-27T03:42:29.119Z,26.15
2022-08-27T03:45:30.430Z,25.73
2022-08-27T03:48:53.083Z,26.23
2022-08-27T03:51:59.045Z,24.90
2022-08-27T03:55:01.779Z,26.02
2022-08-27T03:58:03.502Z,26.02
2022-08-27T04:01:06.824Z,26.13
2022-08-27T04:04:07.915Z,25.15
2022-08-27T04:07:10.687Z,26.15
2022-08-27T04:10:13.959Z,24.85
2022-08-27T04:13:15.573Z,24.67
2022-08-27T04:16:17.278Z,23.63
2022-08-27T04:19:20.576Z,26.90
2022-08-27T04:22:23.965Z,25.15
2022-08-27T04:25:25.162Z,28.20
2022-08-27T04:28:26.545Z,26.85
2022-08-27T04:31:27.569Z,28.27
2022-08-27T04:34:30.320Z,27.50
2022-08-27T04:37:33.285Z,26.63
2022-08-27T04:40:54.728Z,24.10
2022-08-27T04:44:02.444Z,24.27
2022-08-27T04:47:06.151Z,24.15
2022-08-27T04:50:07.667Z,22.98
2022-08-27T04:53:10.964Z,24.25
2022-08-27T04:56:16.877Z,25.25
2022-08-27T04:59:17.654Z,24.98
2022-08-27T05:02:18.966Z,26.38
2022-08-27T05:05:20.254Z,24.55
2022-08-27T05:08:21.468Z,28.25
2022-08-27T05:11:27.309Z,28.75
2022-08-27T05:14:32.795Z,26.25
2022-08-27T05:17:34.068Z,29.10
2022-08-27T05:20:42.894Z,28.95
2022-08-27T05:23:43.629Z,28.13
2022-08-27T05:26:46.068Z,27.52
2022-08-27T05:29:46.896Z,33.67
2022-08-27T05:32:47.694Z,29.83
2022-08-27T05:35:55.906Z,30.58
2022-08-27T05:38:59.846Z,28.40
2022-08-27T05:42:00.786Z,25.70
2022-08-27T05:45:01.643Z,28.20
2022-08-27T05:48:03.157Z,27.08
2022-08-27T05:51:35.094Z,26.42
2022-08-27T05:54:35.962Z,24.38
2022-08-27T05:57:37.237Z,25.08
2022-08-27T06:01:01.680Z,23.08
2022-08-27T06:04:05.720Z,23.13
2022-08-27T06:07:09.419Z,22.38
2022-08-27T06:10:11.427Z,21.70
2022-08-27T06:13:12.668Z,18.63
2022-08-27T06:16:18.370Z,19.20
2022-08-27T06:19:19.800Z,18.58
2022-08-27T06:22:20.636Z,19.60
2022-08-27T06:25:21.535Z,19.15
2022-08-27T06:28:26.374Z,20.25
2022-08-27T06:31:28.255Z,17.55
2022-08-27T06:34:29.322Z,16.25
2022-08-27T06:37:31.120Z,15.98
2022-08-27T06:40:32.311Z,15.07
2022-08-27T06:43:36.128Z,15.60
2022-08-27T06:46:37.525Z,15.45
2022-08-27T06:49:41.583Z,16.65
2022-08-27T06:52:47.730Z,16.75
2022-08-27T06:55:50.178Z,18.25
2022-08-27T06:59:00.668Z,17.52
2022-08-27T07:02:01.910Z,17.33
2022-08-27T07:05:02.683Z,16.73
2022-08-27T07:08:05.014Z,15.85
2022-08-27T07:11:08.703Z,19.83
2022-08-27T07:14:10.042Z,19.10
2022-08-27T07:17:15.849Z,17.73
2022-08-27T07:20:20.637Z,18.03
2022-08-27T07:23:21.792Z,17.88
2022-08-27T07:26:23.964Z,17.98
2022-08-27T07:29:28.250Z,16.13
2022-08-27T07:32:31.769Z,15.07
2022-08-27T07:35:32.835Z,13.82
2022-08-27T07:38:35.739Z,13.50
2022-08-27T07:41:57.012Z,14.63
2022-08-27T07:44:58.599Z,13.00
2022-08-27T07:47:59.512Z,13.85
2022-08-27T07:51:05.346Z,14.45
2022-08-27T07:54:06.672Z,14.45
2022-08-27T07:57:08.690Z,10.57
2022-08-27T08:00:12.479Z,10.48
2022-08-27T08:03:13.712Z,10.02
2022-08-27T08:06:16.774Z,9.55
2022-08-27T08:09:18.438Z,8.98
2022-08-27T08:12:26.273Z,8.43
2022-08-27T08:15:27.914Z,6.90
2022-08-27T08:18:29.040Z,7.78
2022-08-27T08:21:30.169Z,7.22
2022-08-27T08:24:31.854Z,7.60
2022-08-27T08:27:32.918Z,8.15
2022-08-27T08:30:35.500Z,7.20
2022-08-27T08:33:37.600Z,7.07
2022-08-27T08:36:38.693Z,6.28
2022-08-27T08:39:39.950Z,4.43
2022-08-27T08:42:51.365Z,4.53
2022-08-27T08:45:54.505Z,4.60
2022-08-27T08:49:05.797Z,5.53
2022-08-27T08:52:31.622Z,4.68
2022-08-27T08:55:59.558Z,3.40
2022-08-27T08:59:23.702Z,3.80
2022-08-27T09:02:24.795Z,3.53
2022-08-27T09:05:28.260Z,4.00
2022-08-27T09:08:41.153Z,5.38
2022-08-27T09:11:59.411Z,5.65
2022-08-27T09:15:18.910Z,5.15
2022-08-27T09:18:19.747Z,4.90
2022-08-27T09:21:43.032Z,5.13
2022-08-27T09:25:09.415Z,4.65
2022-08-27T09:28:43.866Z,5.05
2022-08-27T09:32:05.856Z,5.28
2022-08-27T09:35:11.561Z,5.47
2022-08-27T09:38:28.542Z,5.80
2022-08-27T09:41:47.424Z,5.07
2022-08-27T09:44:53.384Z,5.40
2022-08-27T09:48:07.711Z,4.63
2022-08-27T09:51:14.398Z,4.93
2022-08-27T09:54:42.667Z,5.00
2022-08-27T09:57:43.642Z,4.30
2022-08-27T10:00:46.746Z,4.32
2022-08-27T10:03:49.628Z,4.75
2022-08-27T10:06:52.336Z,4.35
2022-08-27T10:10:05.862Z,3.92
2022-08-27T10:13:20.009Z,4.90
2022-08-27T10:17:05.156Z,5.00
2022-08-27T10:20:44.933Z,4.82
2022-08-27T10:24:11.653Z,5.60
2022-08-27T10:27:39.543Z,6.05
2022-08-27T10:31:11.699Z,6.18
2022-08-27T10:34:34.505Z,7.20
2022-08-27T10:38:10.020Z,7.37
2022-08-27T10:41:35.341Z,7.78
2022-08-27T10:44:46.382Z,8.73
2022-08-27T10:48:01.503Z,8.15
2022-08-27T10:51:41.680Z,9.00
2022-08-27T10:55:22.419Z,8.52
2022-08-27T10:58:43.477Z,7.72
2022-08-27T11:02:02.766Z,8.90
2022-08-27T11:05:18.267Z,8.40
2022-08-27T11:08:28.966Z,9.98
2022-08-27T11:12:12.893Z,10.20
2022-08-27T11:15:17.008Z,11.35
2022-08-27T11:18:39.335Z,11.13
2022-08-27T11:22:02.956Z,11.43
2022-08-27T11:25:15.969Z,11.85
2022-08-27T11:28:29.723Z,12.02
2022-08-27T11:31:48.891Z,12.23
2022-08-27T11:34:59.153Z,11.60
2022-08-27T11:38:30.226Z,11.73
2022-08-27T11:42:01.770Z,12.05
2022-08-27T11:45:38.784Z,12.45
2022-08-27T11:48:57.190Z,10.68
2022-08-27T11:52:08.621Z,10.05
2022-08-27T11:55:13.199Z,8.05
2022-08-27T11:58:21.869Z,9.77
2022-08-27T12:01:32.171Z,10.10
2022-08-27T12:04:41.923Z,8.80
2022-08-27T12:07:46.196Z,8.95
2022-08-27T12:11:37.067Z,9.25
2022-08-27T12:15:05.116Z,9.73
2022-08-27T12:18:41.743Z,10.10
2022-08-27T12:22:30.092Z,10.07
2022-08-27T12:25:31.439Z,10.25
2022-08-27T12:28:32.198Z,9.93
2022-08-27T12:31:36.061Z,9.38
2022-08-27T12:35:10.939Z,10.82
2022-08-27T12:38:32.523Z,10.68
2022-08-27T12:41:44.258Z,9.35
2022-08-27T12:44:45.799Z,10.15
2022-08-27T12:47:51.048Z,9.82
2022-08-27T12:51:14.221Z,12.32
2022-08-27T12:54:42.908Z,11.38
2022-08-27T12:58:22.307Z,11.05
2022-08-27T13:02:12.444Z,10.38
2022-08-27T13:05:19.432Z,11.20
2022-08-27T13:08:36.177Z,10.18
2022-08-27T13:11:55.768Z,10.00
2022-08-27T13:15:09.051Z,9.75
2022-08-27T13:18:12.176Z,8.75
2022-08-27T13:21:29.518Z,8.80
2022-08-27T13:24:48.927Z,9.15
2022-08-27T13:28:13.658Z,9.30
2022-08-27T13:31:16.855Z,9.55
2022-08-27T13:34:24.143Z,9.48
2022-08-27T13:37:34.088Z,9.05
2022-08-27T13:40:56.844Z,9.63
2022-08-27T13:44:05.953Z,9.48
2022-08-27T13:47:20.979Z,8.88
2022-08-27T13:50:30.229Z,8.48
2022-08-27T13:53:52.823Z,9.40
2022-08-27T13:56:55.205Z,9.55
2022-08-27T13:59:56.523Z,8.75
2022-08-27T14:03:01.044Z,8.57
2022-08-27T14:06:02.791Z,8.77
2022-08-27T14:09:29.463Z,9.05
2022-08-27T14:12:42.349Z,9.38
2022-08-27T14:15:55.425Z,8.60
2022-08-27T14:19:28.546Z,9.48
2022-08-27T14:22:37.200Z,9.40
2022-08-27T14:25:38.281Z,8.88
2022-08-27T14:28:39.298Z,7.75
2022-08-27T14:31:40.386Z,7.68
2022-08-27T14:34:41.394Z,6.82
2022-08-27T14:37:44.987Z,7.60
2022-08-27T14:40:49.102Z,8.10
2022-08-27T14:43:50.349Z,8.32
2022-08-27T14:46:53.247Z,8.88
2022-08-27T14:49:54.726Z,9.05
2022-08-27T14:52:55.958Z,5.03
2022-08-27T14:55:59.457Z,5.28
2022-08-27T14:59:00.215Z,4.93
2022-08-27T15:02:07.116Z,4.47
2022-08-27T15:05:11.779Z,5.30
2022-08-27T15:08:13.564Z,5.60
2022-08-27T15:11:26.670Z,5.45
2022-08-27T15:14:37.368Z,6.10
2022-08-27T15:17:38.732Z,5.30
2022-08-27T15:20:41.804Z,5.88
2022-08-27T15:23:47.624Z,6.30
2022-08-27T15:26:51.673Z,5.53
2022-08-27T15:29:53.334Z,5.43
2022-08-27T15:32:55.037Z,5.57
2022-08-27T15:35:58.921Z,5.15
2022-08-27T15:39:02.424Z,5.95
2022-08-27T15:42:06.805Z,5.72
2022-08-27T15:45:15.122Z,5.97
2022-08-27T15:48:16.497Z,5.72
2022-08-27T15:51:25.406Z,6.30
2022-08-27T15:54:26.728Z,6.07
2022-08-27T15:57:27.762Z,6.28
2022-08-27T16:00:33.918Z,6.20
2022-08-27T16:03:35.868Z,5.60
2022-08-27T16:06:38.786Z,5.35
2022-08-27T16:09:40.640Z,4.80
2022-08-27T16:12:41.908Z,4.60
2022-08-27T16:15:43.360Z,4.60
2022-08-27T16:18:44.512Z,4.20
2022-08-27T16:21:47.495Z,6.38
2022-08-27T16:24:50.564Z,5.68
2022-08-27T16:27:51.679Z,6.75
2022-08-27T16:30:55.929Z,5.65
2022-08-27T16:33:57.573Z,5.60
2022-08-27T16:36:58.637Z,6.30
2022-08-27T16:40:00.094Z,6.15
2022-08-27T16:43:01.893Z,5.25
2022-08-27T16:46:03.684Z,6.20
2022-08-27T16:49:23.413Z,4.68
2022-08-27T16:52:24.682Z,5.35
2022-08-27T16:55:25.758Z,4.90
2022-08-27T16:58:31.012Z,5.13
2022-08-27T17:01:33.521Z,5.10
2022-08-27T17:04:36.686Z,5.57
2022-08-27T17:07:44.075Z,5.93
2022-08-27T17:10:53.422Z,5.07
2022-08-27T17:13:58.881Z,5.07
2022-08-27T17:17:00.556Z,5.05
2022-08-27T17:20:02.759Z,4.95
2022-08-27T17:23:05.448Z,5.05
2022-08-27T17:26:10.851Z,5.05
2022-08-27T17:29:12.101Z,5.28
2022-08-27T17:32:13.477Z,5.10
2022-08-27T17:35:15.599Z,4.97
2022-08-27T17:38:17.181Z,5.18
2022-08-27T17:41:34.540Z,5.45
2022-08-27T17:44:37.790Z,7.50
2022-08-27T17:47:38.835Z,9.18
2022-08-27T17:50:39.841Z,9.20
2022-08-27T17:53:47.836Z,8.70
2022-08-27T17:56:49.087Z,11.82
2022-08-27T17:59:51.372Z,10.77
2022-08-27T18:02:53.804Z,10.48
2022-08-27T18:05:55.086Z,11.25
2022-08-27T18:08:56.262Z,12.73
2022-08-27T18:11:58.648Z,12.90
2022-08-27T18:15:20.539Z,12.48
2022-08-27T18:18:21.878Z,11.85
2022-08-27T18:21:25.412Z,11.50
2022-08-27T18:24:27.590Z,11.43
2022-08-27T18:27:32.901Z,11.13
2022-08-27T18:30:34.984Z,9.35
2022-08-27T18:33:37.610Z,7.55
2022-08-27T18:36:38.737Z,6.75
2022-08-27T18:39:40.783Z,7.10
2022-08-27T18:42:42.512Z,6.43
2022-08-27T18:45:43.816Z,6.88
2022-08-27T18:48:45.712Z,6.90
2022-08-27T18:51:50.643Z,7.63
2022-08-27T18:54:53.768Z,8.10
2022-08-27T18:57:55.143Z,7.65
2022-08-27T19:01:02.151Z,7.97
2022-08-27T19:04:05.229Z,8.82
2022-08-27T19:07:06.583Z,9.77
2022-08-27T19:10:08.114Z,10.93
2022-08-27T19:13:12.119Z,11.48
2022-08-27T19:16:46.126Z,11.40
2022-08-27T19:19:50.817Z,9.93
2022-08-27T19:22:51.896Z,11.18
2022-08-27T19:25:54.185Z,11.73
2022-08-27T19:28:58.381Z,12.90
2022-08-27T19:31:59.424Z,12.10
2022-08-27T19:35:01.135Z,10.65
2022-08-27T19:38:02.660Z,10.65
2022-08-27T19:41:05.390Z,10.82
2022-08-27T19:44:06.801Z,12.68
2022-08-27T19:47:11.066Z,12.60
2022-08-27T19:50:19.255Z,11.15
2022-08-27T19:53:20.670Z,12.32
2022-08-27T19:56:22.003Z,11.48
2022-08-27T19:59:22.828Z,11.23
2022-08-27T20:02:24.199Z,12.35
2022-08-27T20:05:25.345Z,11.40
2022-08-27T20:08:26.572Z,12.93
2022-08-27T20:11:27.743Z,12.40
2022-08-27T20:14:29.154Z,13.20
2022-08-27T20:17:32.012Z,11.68
2022-08-27T20:20:34.270Z,13.50
2022-08-27T20:23:35.692Z,13.40
2022-08-27T20:26:36.775Z,13.50
2022-08-27T20:29:37.996Z,13.10
2022-08-27T20:32:39.371Z,12.82
2022-08-27T20:35:40.362Z,12.80
2022-08-27T20:38:41.971Z,12.43
2022-08-27T20:41:43.104Z,13.93
2022-08-27T20:44:45.487Z,13.88
2022-08-27T20:47:49.904Z,13.82
2022-08-27T20:50:51.153Z,14.15
2022-08-27T20:53:52.884Z,15.32
2022-08-27T20:56:53.928Z,15.43
2022-08-27T21:00:13.597Z,14.80
2022-08-27T21:03:15.319Z,13.98
2022-08-27T21:06:16.197Z,14.05
2022-08-27T21:09:17.098Z,12.25
2022-08-27T21:12:22.564Z,13.35
2022-08-27T21:15:24.415Z,12.95
2022-08-27T21:18:29.642Z,13.52
2022-08-27T21:21:31.335Z,13.32
2022-08-27T21:24:34.004Z,13.18
2022-08-27T21:27:35.017Z,11.82
2022-08-27T21:30:37.347Z,14.45
2022-08-27T21:33:39.525Z,12.70
2022-08-27T21:36:40.890Z,12.68
2022-08-27T21:39:44.097Z,12.45
2022-08-27T21:42:45.026Z,13.98
2022-08-27T21:45:46.436Z,13.93
2022-08-27T21:48:58.465Z,13.65
2022-08-27T21:52:06.199Z,15.23
2022-08-27T21:55:08.043Z,15.13
2022-08-27T21:58:09.082Z,12.77
2022-08-27T22:01:10.079Z,12.85
2022-08-27T22:04:11.525Z,13.02
2022-08-27T22:07:13.368Z,13.23
2022-08-27T22:10:14.984Z,12.07
2022-08-27T22:13:17.006Z,13.07
2022-08-27T22:16:19.156Z,12.38
2022-08-27T22:19:21.573Z,12.55
2022-08-27T22:22:23.013Z,12.85
2022-08-27T22:25:24.242Z,11.63
2022-08-27T22:28:25.145Z,12.38
2022-08-27T22:31:26.588Z,11.27
2022-08-27T22:34:27.610Z,13.13
2022-08-27T22:37:29.109Z,10.65
2022-08-27T22:40:31.371Z,12.07
2022-08-27T22:43:36.362Z,12.30
2022-08-27T22:46:37.308Z,12.50
2022-08-27T22:49:38.746Z,12.32
2022-08-27T22:52:44.183Z,14.82
2022-08-27T22:55:49.873Z,13.88
2022-08-27T22:58:51.452Z,16.00
2022-08-27T23:01:55.818Z,17.00
2022-08-27T23:04:57.401Z,14.45
2022-08-27T23:07:59.069Z,14.32
2022-08-27T23:10:59.885Z,13.23
2022-08-27T23:14:01.220Z,14.40
2022-08-27T23:17:02.763Z,15.77
2022-08-27T23:20:07.342Z,14.52
2022-08-27T23:23:10.225Z,12.88
2022-08-27T23:26:30.056Z,12.13
2022-08-27T23:29:31.939Z,11.07
2022-08-27T23:32:33.096Z,12.25
2022-08-27T23:35:34.732Z,12.70
2022-08-27T23:38:35.919Z,13.15
2022-08-27T23:41:36.920Z,13.98
2022-08-27T23:44:38.295Z,11.95
2022-08-27T23:47:39.076Z,13.52
2022-08-27T23:50:40.966Z,14.30
2022-08-27T23:53:42.258Z,12.18
2022-08-27T23:56:43.087Z,10.80
2022-08-27T23:59:43.978Z,12.60
